sensor_id;sensor_type;location;lat;lon;timestamp;P1;durP1;ratioP1;P2;durP2;ratioP2
65971;SDS011;52726;48.852;9.152;2022-12-07T00:01:25;6.18;;;4.13;;
65971;SDS011;52726;48.852;9.152;2022-12-07T00:03:52;7.25;;;4.15;;
65971;SDS011;52726;48.852;9.152;2022-12-07T00:06:19;8.48;;;5.00;;
65971;SDS011;52726;48.852;9.152;2022-12-07T00:08:45;5.10;;;4.22;;
65971;SDS011;52726;48.852;9.152;2022-12-07T00:11:12;5.93;;;4.20;;
65971;SDS011;52726;48.852;9.152;2022-12-07T00:13:39;6.75;;;4.35;;
65971;SDS011;52726;48.852;9.152;2022-12-07T00:16:07;7.55;;;4.45;;
65971;SDS011;52726;48.852;9.152;2022-12-07T00:18:34;7.35;;;4.53;;
65971;SDS011;52726;48.852;9.152;2022-12-07T00:21:03;7.35;;;4.40;;
65971;SDS011;52726;48.852;9.152;2022-12-07T00:23:34;9.40;;;4.93;;
65971;SDS011;52726;48.852;9.152;2022-12-07T00:26:06;9.35;;;5.45;;
65971;SDS011;52726;48.852;9.152;2022-12-07T00:28:49;8.82;;;5.28;;
65971;SDS011;52726;48.852;9.152;2022-12-07T00:31:17;14.70;;;4.32;;
65971;SDS011;52726;48.852;9.152;2022-12-07T00:33:44;9.48;;;4.05;;
65971;SDS011;52726;48.852;9.152;2022-12-07T00:36:11;7.78;;;4.38;;
65971;SDS011;52726;48.852;9.152;2022-12-07T00:38:39;7.93;;;5.03;;
65971;SDS011;52726;48.852;9.152;2022-12-07T00:41:05;7.20;;;4.85;;
65971;SDS011;52726;48.852;9.152;2022-12-07T00:43:41;6.15;;;3.97;;
65971;SDS011;52726;48.852;9.152;2022-12-07T00:46:08;6.40;;;4.25;;
65971;SDS011;52726;48.852;9.152;2022-12-07T00:48:34;13.10;;;4.65;;
65971;SDS011;52726;48.852;9.152;2022-12-07T00:50:59;5.60;;;3.95;;
65971;SDS011;52726;48.852;9.152;2022-12-07T00:53:26;7.45;;;4.05;;
65971;SDS011;52726;48.852;9.152;2022-12-07T00:55:51;7.78;;;4.60;;
65971;SDS011;52726;48.852;9.152;2022-12-07T00:58:17;6.32;;;4.35;;
65971;SDS011;52726;48.852;9.152;2022-12-07T01:00:43;6.78;;;4.68;;
65971;SDS011;52726;48.852;9.152;2022-12-07T01:03:09;13.20;;;4.65;;
65971;SDS011;52726;48.852;9.152;2022-12-07T01:05:36;7.53;;;4.20;;
65971;SDS011;52726;48.852;9.152;2022-12-07T01:08:02;10.68;;;5.40;;
65971;SDS011;52726;48.852;9.152;2022-12-07T01:10:28;11.07;;;5.38;;
65971;SDS011;52726;48.852;9.152;2022-12-07T01:12:55;7.15;;;4.40;;
65971;SDS011;52726;48.852;9.152;2022-12-07T01:15:21;7.25;;;4.45;;
65971;SDS011;52726;48.852;9.152;2022-12-07T01:17:46;7.18;;;4.43;;
65971;SDS011;52726;48.852;9.152;2022-12-07T01:20:12;8.25;;;5.15;;
65971;SDS011;52726;48.852;9.152;2022-12-07T01:22:38;9.20;;;4.60;;
65971;SDS011;52726;48.852;9.152;2022-12-07T01:25:05;8.27;;;4.40;;
65971;SDS011;52726;48.852;9.152;2022-12-07T01:27:32;7.68;;;4.57;;
65971;SDS011;52726;48.852;9.152;2022-12-07T01:29:58;8.27;;;5.50;;
65971;SDS011;52726;48.852;9.152;2022-12-07T01:32:23;8.30;;;5.00;;
65971;SDS011;52726;48.852;9.152;2022-12-07T01:34:48;7.78;;;4.60;;
65971;SDS011;52726;48.852;9.152;2022-12-07T01:37:14;6.65;;;4.25;;
65971;SDS011;52726;48.852;9.152;2022-12-07T01:39:39;6.28;;;4.30;;
65971;SDS011;52726;48.852;9.152;2022-12-07T01:42:08;8.70;;;4.93;;
65971;SDS011;52726;48.852;9.152;2022-12-07T01:47:40;7.55;;;4.65;;
65971;SDS011;52726;48.852;9.152;2022-12-07T01:50:08;7.93;;;4.10;;
65971;SDS011;52726;48.852;9.152;2022-12-07T01:52:34;8.38;;;4.40;;
65971;SDS011;52726;48.852;9.152;2022-12-07T01:55:06;7.47;;;4.97;;
65971;SDS011;52726;48.852;9.152;2022-12-07T01:57:35;10.35;;;4.25;;
65971;SDS011;52726;48.852;9.152;2022-12-07T02:00:05;6.05;;;4.07;;
65971;SDS011;52726;48.852;9.152;2022-12-07T02:02:33;6.15;;;3.83;;
65971;SDS011;52726;48.852;9.152;2022-12-07T02:05:01;5.70;;;4.50;;
65971;SDS011;52726;48.852;9.152;2022-12-07T02:07:28;7.25;;;4.70;;
65971;SDS011;52726;48.852;9.152;2022-12-07T02:09:54;9.80;;;4.82;;
65971;SDS011;52726;48.852;9.152;2022-12-07T02:12:20;5.88;;;3.95;;
65971;SDS011;52726;48.852;9.152;2022-12-07T02:14:48;5.43;;;4.03;;
65971;SDS011;52726;48.852;9.152;2022-12-07T02:17:23;5.00;;;4.03;;
65971;SDS011;52726;48.852;9.152;2022-12-07T02:28:19;6.03;;;4.18;;
65971;SDS011;52726;48.852;9.152;2022-12-07T02:30:54;8.30;;;3.78;;
65971;SDS011;52726;48.852;9.152;2022-12-07T02:33:37;6.72;;;3.95;;
65971;SDS011;52726;48.852;9.152;2022-12-07T02:36:10;5.55;;;4.05;;
65971;SDS011;52726;48.852;9.152;2022-12-07T02:41:22;7.60;;;3.55;;
65971;SDS011;52726;48.852;9.152;2022-12-07T02:44:13;5.97;;;3.45;;
65971;SDS011;52726;48.852;9.152;2022-12-07T02:46:47;8.02;;;4.22;;
65971;SDS011;52726;48.852;9.152;2022-12-07T02:49:17;6.75;;;3.58;;
65971;SDS011;52726;48.852;9.152;2022-12-07T02:51:45;6.30;;;3.80;;
65971;SDS011;52726;48.852;9.152;2022-12-07T02:54:12;4.75;;;3.13;;
65971;SDS011;52726;48.852;9.152;2022-12-07T03:09:50;6.38;;;4.10;;
65971;SDS011;52726;48.852;9.152;2022-12-07T03:12:38;6.15;;;3.90;;
65971;SDS011;52726;48.852;9.152;2022-12-07T03:15:12;7.80;;;3.65;;
65971;SDS011;52726;48.852;9.152;2022-12-07T03:17:40;5.10;;;3.83;;
65971;SDS011;52726;48.852;9.152;2022-12-07T03:22:35;11.63;;;3.80;;
65971;SDS011;52726;48.852;9.152;2022-12-07T03:25:06;6.30;;;4.00;;
65971;SDS011;52726;48.852;9.152;2022-12-07T03:27:37;7.40;;;4.25;;
65971;SDS011;52726;48.852;9.152;2022-12-07T03:30:10;6.28;;;3.85;;
65971;SDS011;52726;48.852;9.152;2022-12-07T03:32:41;6.57;;;4.00;;
65971;SDS011;52726;48.852;9.152;2022-12-07T03:35:21;9.90;;;4.05;;
65971;SDS011;52726;48.852;9.152;2022-12-07T03:42:50;7.38;;;4.25;;
65971;SDS011;52726;48.852;9.152;2022-12-07T03:45:17;6.75;;;4.30;;
65971;SDS011;52726;48.852;9.152;2022-12-07T03:47:46;4.55;;;3.53;;
65971;SDS011;52726;48.852;9.152;2022-12-07T03:50:20;8.27;;;4.43;;
65971;SDS011;52726;48.852;9.152;2022-12-07T03:52:53;6.72;;;4.57;;
65971;SDS011;52726;48.852;9.152;2022-12-07T03:55:27;7.53;;;4.22;;
65971;SDS011;52726;48.852;9.152;2022-12-07T03:57:56;5.82;;;4.10;;
65971;SDS011;52726;48.852;9.152;2022-12-07T04:00:28;7.93;;;4.60;;
65971;SDS011;52726;48.852;9.152;2022-12-07T04:02:54;6.97;;;4.05;;
65971;SDS011;52726;48.852;9.152;2022-12-07T04:05:20;5.97;;;4.00;;
65971;SDS011;52726;48.852;9.152;2022-12-07T04:07:45;8.82;;;4.55;;
65971;SDS011;52726;48.852;9.152;2022-12-07T04:10:11;8.38;;;5.20;;
65971;SDS011;52726;48.852;9.152;2022-12-07T04:12:37;7.97;;;4.40;;
65971;SDS011;52726;48.852;9.152;2022-12-07T04:15:02;7.47;;;4.55;;
65971;SDS011;52726;48.852;9.152;2022-12-07T04:17:28;8.55;;;5.05;;
65971;SDS011;52726;48.852;9.152;2022-12-07T04:19:54;9.80;;;6.05;;
65971;SDS011;52726;48.852;9.152;2022-12-07T04:22:19;9.07;;;4.80;;
65971;SDS011;52726;48.852;9.152;2022-12-07T04:24:45;8.65;;;5.10;;
65971;SDS011;52726;48.852;9.152;2022-12-07T04:27:10;9.70;;;5.05;;
65971;SDS011;52726;48.852;9.152;2022-12-07T04:29:35;7.32;;;4.30;;
65971;SDS011;52726;48.852;9.152;2022-12-07T04:32:01;7.13;;;4.68;;
65971;SDS011;52726;48.852;9.152;2022-12-07T04:34:26;11.43;;;4.63;;
65971;SDS011;52726;48.852;9.152;2022-12-07T04:36:51;8.05;;;4.13;;
65971;SDS011;52726;48.852;9.152;2022-12-07T04:39:21;10.75;;;3.95;;
65971;SDS011;52726;48.852;9.152;2022-12-07T04:41:49;10.20;;;4.22;;
65971;SDS011;52726;48.852;9.152;2022-12-07T04:44:15;7.78;;;4.53;;
65971;SDS011;52726;48.852;9.152;2022-12-07T04:46:41;7.45;;;4.25;;
65971;SDS011;52726;48.852;9.152;2022-12-07T04:49:07;4.75;;;2.90;;
65971;SDS011;52726;48.852;9.152;2022-12-07T04:51:32;6.40;;;3.33;;
65971;SDS011;52726;48.852;9.152;2022-12-07T04:53:58;6.50;;;3.15;;
65971;SDS011;52726;48.852;9.152;2022-12-07T04:56:23;6.97;;;3.28;;
65971;SDS011;52726;48.852;9.152;2022-12-07T04:58:50;7.07;;;3.20;;
65971;SDS011;52726;48.852;9.152;2022-12-07T05:01:17;6.30;;;4.20;;
65971;SDS011;52726;48.852;9.152;2022-12-07T05:03:43;4.32;;;3.15;;
65971;SDS011;52726;48.852;9.152;2022-12-07T05:06:09;6.47;;;3.08;;
65971;SDS011;52726;48.852;9.152;2022-12-07T05:08:36;6.72;;;3.78;;
65971;SDS011;52726;48.852;9.152;2022-12-07T05:11:01;6.20;;;3.80;;
65971;SDS011;52726;48.852;9.152;2022-12-07T05:13:26;7.40;;;4.47;;
65971;SDS011;52726;48.852;9.152;2022-12-07T05:15:52;9.88;;;3.88;;
65971;SDS011;52726;48.852;9.152;2022-12-07T05:18:18;4.47;;;3.20;;
65971;SDS011;52726;48.852;9.152;2022-12-07T05:20:44;4.88;;;3.72;;
65971;SDS011;52726;48.852;9.152;2022-12-07T05:23:09;5.53;;;3.75;;
65971;SDS011;52726;48.852;9.152;2022-12-07T05:25:35;5.20;;;3.65;;
65971;SDS011;52726;48.852;9.152;2022-12-07T05:28:01;5.53;;;3.25;;
65971;SDS011;52726;48.852;9.152;2022-12-07T05:30:26;5.00;;;3.47;;
65971;SDS011;52726;48.852;9.152;2022-12-07T05:32:52;5.85;;;4.05;;
65971;SDS011;52726;48.852;9.152;2022-12-07T05:35:18;6.07;;;3.95;;
65971;SDS011;52726;48.852;9.152;2022-12-07T05:37:44;9.05;;;3.97;;
65971;SDS011;52726;48.852;9.152;2022-12-07T05:40:10;4.72;;;3.55;;
65971;SDS011;52726;48.852;9.152;2022-12-07T05:42:37;7.22;;;4.00;;
65971;SDS011;52726;48.852;9.152;2022-12-07T05:45:03;7.13;;;3.70;;
65971;SDS011;52726;48.852;9.152;2022-12-07T05:47:29;6.07;;;3.67;;
65971;SDS011;52726;48.852;9.152;2022-12-07T05:49:54;9.38;;;3.75;;
65971;SDS011;52726;48.852;9.152;2022-12-07T05:52:20;6.75;;;4.35;;
65971;SDS011;52726;48.852;9.152;2022-12-07T05:54:45;8.30;;;3.83;;
65971;SDS011;52726;48.852;9.152;2022-12-07T05:57:11;7.65;;;3.88;;
65971;SDS011;52726;48.852;9.152;2022-12-07T05:59:36;6.30;;;3.90;;
65971;SDS011;52726;48.852;9.152;2022-12-07T06:02:12;9.88;;;4.00;;
65971;SDS011;52726;48.852;9.152;2022-12-07T06:04:41;9.52;;;4.72;;
65971;SDS011;52726;48.852;9.152;2022-12-07T06:07:09;6.22;;;3.65;;
65971;SDS011;52726;48.852;9.152;2022-12-07T06:09:35;6.78;;;4.28;;
65971;SDS011;52726;48.852;9.152;2022-12-07T06:12:02;7.95;;;4.18;;
65971;SDS011;52726;48.852;9.152;2022-12-07T06:14:46;8.93;;;4.25;;
65971;SDS011;52726;48.852;9.152;2022-12-07T06:17:12;7.10;;;4.07;;
65971;SDS011;52726;48.852;9.152;2022-12-07T06:19:38;8.75;;;4.88;;
65971;SDS011;52726;48.852;9.152;2022-12-07T06:22:04;7.60;;;4.18;;
65971;SDS011;52726;48.852;9.152;2022-12-07T06:24:30;5.57;;;3.28;;
65971;SDS011;52726;48.852;9.152;2022-12-07T06:26:56;7.38;;;3.03;;
65971;SDS011;52726;48.852;9.152;2022-12-07T06:29:22;4.97;;;3.30;;
65971;SDS011;52726;48.852;9.152;2022-12-07T06:31:47;7.68;;;3.75;;
65971;SDS011;52726;48.852;9.152;2022-12-07T06:34:14;4.75;;;3.47;;
65971;SDS011;52726;48.852;9.152;2022-12-07T06:36:44;5.95;;;3.83;;
65971;SDS011;52726;48.852;9.152;2022-12-07T06:39:10;5.68;;;3.25;;
65971;SDS011;52726;48.852;9.152;2022-12-07T06:41:37;4.82;;;3.20;;
65971;SDS011;52726;48.852;9.152;2022-12-07T06:44:03;7.68;;;3.58;;
65971;SDS011;52726;48.852;9.152;2022-12-07T06:46:30;4.68;;;3.42;;
65971;SDS011;52726;48.852;9.152;2022-12-07T06:48:55;7.70;;;3.72;;
65971;SDS011;52726;48.852;9.152;2022-12-07T06:51:21;4.32;;;2.90;;
65971;SDS011;52726;48.852;9.152;2022-12-07T06:53:47;3.67;;;2.72;;
65971;SDS011;52726;48.852;9.152;2022-12-07T06:56:12;6.85;;;3.95;;
65971;SDS011;52726;48.852;9.152;2022-12-07T06:58:38;3.78;;;2.72;;
65971;SDS011;52726;48.852;9.152;2022-12-07T07:01:11;4.55;;;3.15;;
65971;SDS011;52726;48.852;9.152;2022-12-07T07:03:37;5.05;;;3.03;;
65971;SDS011;52726;48.852;9.152;2022-12-07T07:06:03;4.10;;;2.75;;
65971;SDS011;52726;48.852;9.152;2022-12-07T07:08:29;6.25;;;3.67;;
65971;SDS011;52726;48.852;9.152;2022-12-07T07:10:54;7.03;;;3.10;;
65971;SDS011;52726;48.852;9.152;2022-12-07T07:13:20;6.05;;;3.55;;
65971;SDS011;52726;48.852;9.152;2022-12-07T07:15:45;5.15;;;3.05;;
65971;SDS011;52726;48.852;9.152;2022-12-07T07:18:11;4.50;;;2.92;;
65971;SDS011;52726;48.852;9.152;2022-12-07T07:20:36;3.50;;;2.78;;
65971;SDS011;52726;48.852;9.152;2022-12-07T07:23:02;4.75;;;3.38;;
65971;SDS011;52726;48.852;9.152;2022-12-07T07:25:27;3.08;;;2.30;;
65971;SDS011;52726;48.852;9.152;2022-12-07T07:27:53;10.82;;;3.70;;
65971;SDS011;52726;48.852;9.152;2022-12-07T07:30:18;3.30;;;2.33;;
65971;SDS011;52726;48.852;9.152;2022-12-07T07:32:44;9.57;;;4.03;;
65971;SDS011;52726;48.852;9.152;2022-12-07T07:35:09;5.55;;;3.40;;
65971;SDS011;52726;48.852;9.152;2022-12-07T07:37:35;12.13;;;3.33;;
65971;SDS011;52726;48.852;9.152;2022-12-07T07:40:00;6.43;;;3.45;;
65971;SDS011;52726;48.852;9.152;2022-12-07T07:42:25;6.80;;;3.13;;
65971;SDS011;52726;48.852;9.152;2022-12-07T07:44:51;5.05;;;3.15;;
65971;SDS011;52726;48.852;9.152;2022-12-07T07:47:16;3.30;;;2.47;;
65971;SDS011;52726;48.852;9.152;2022-12-07T07:49:41;4.20;;;2.90;;
65971;SDS011;52726;48.852;9.152;2022-12-07T07:52:07;6.47;;;2.75;;
65971;SDS011;52726;48.852;9.152;2022-12-07T07:54:32;4.20;;;2.67;;
65971;SDS011;52726;48.852;9.152;2022-12-07T07:56:57;4.53;;;3.05;;
65971;SDS011;52726;48.852;9.152;2022-12-07T07:59:23;4.00;;;2.53;;
65971;SDS011;52726;48.852;9.152;2022-12-07T08:01:50;4.97;;;2.92;;
65971;SDS011;52726;48.852;9.152;2022-12-07T08:04:15;7.18;;;3.13;;
65971;SDS011;52726;48.852;9.152;2022-12-07T08:06:41;2.58;;;2.20;;
65971;SDS011;52726;48.852;9.152;2022-12-07T08:09:07;5.28;;;2.60;;
65971;SDS011;52726;48.852;9.152;2022-12-07T08:11:33;3.97;;;2.63;;
65971;SDS011;52726;48.852;9.152;2022-12-07T08:13:59;3.35;;;2.72;;
65971;SDS011;52726;48.852;9.152;2022-12-07T08:16:24;2.80;;;2.20;;
65971;SDS011;52726;48.852;9.152;2022-12-07T08:18:49;5.00;;;2.83;;
65971;SDS011;52726;48.852;9.152;2022-12-07T08:21:15;5.95;;;2.40;;
65971;SDS011;52726;48.852;9.152;2022-12-07T08:23:41;4.07;;;3.00;;
65971;SDS011;52726;48.852;9.152;2022-12-07T08:26:07;3.88;;;2.88;;
65971;SDS011;52726;48.852;9.152;2022-12-07T08:28:37;3.40;;;2.58;;
65971;SDS011;52726;48.852;9.152;2022-12-07T08:31:12;4.97;;;2.58;;
65971;SDS011;52726;48.852;9.152;2022-12-07T08:33:39;3.53;;;2.60;;
65971;SDS011;52726;48.852;9.152;2022-12-07T08:36:05;6.30;;;2.72;;
65971;SDS011;52726;48.852;9.152;2022-12-07T08:38:36;13.38;;;3.15;;
65971;SDS011;52726;48.852;9.152;2022-12-07T08:41:03;5.10;;;2.90;;
65971;SDS011;52726;48.852;9.152;2022-12-07T08:43:31;4.25;;;2.78;;
65971;SDS011;52726;48.852;9.152;2022-12-07T08:48:39;5.93;;;2.88;;
65971;SDS011;52726;48.852;9.152;2022-12-07T08:51:07;7.25;;;3.20;;
65971;SDS011;52726;48.852;9.152;2022-12-07T08:53:33;4.40;;;3.05;;
65971;SDS011;52726;48.852;9.152;2022-12-07T08:55:59;5.18;;;2.65;;
65971;SDS011;52726;48.852;9.152;2022-12-07T08:58:25;4.30;;;2.85;;
65971;SDS011;52726;48.852;9.152;2022-12-07T09:00:50;4.15;;;2.88;;
65971;SDS011;52726;48.852;9.152;2022-12-07T09:03:16;4.75;;;2.95;;
65971;SDS011;52726;48.852;9.152;2022-12-07T09:05:41;5.38;;;3.25;;
65971;SDS011;52726;48.852;9.152;2022-12-07T09:08:07;8.00;;;3.22;;
65971;SDS011;52726;48.852;9.152;2022-12-07T09:10:33;4.75;;;3.38;;
65971;SDS011;52726;48.852;9.152;2022-12-07T09:12:58;5.22;;;2.95;;
65971;SDS011;52726;48.852;9.152;2022-12-07T09:15:26;5.20;;;3.10;;
65971;SDS011;52726;48.852;9.152;2022-12-07T09:17:52;5.03;;;2.70;;
65971;SDS011;52726;48.852;9.152;2022-12-07T09:20:18;4.10;;;2.80;;
65971;SDS011;52726;48.852;9.152;2022-12-07T09:22:43;4.93;;;2.30;;
65971;SDS011;52726;48.852;9.152;2022-12-07T09:25:09;4.10;;;2.53;;
65971;SDS011;52726;48.852;9.152;2022-12-07T09:27:34;6.07;;;2.70;;
65971;SDS011;52726;48.852;9.152;2022-12-07T09:30:00;3.83;;;2.42;;
65971;SDS011;52726;48.852;9.152;2022-12-07T09:32:26;5.00;;;2.40;;
65971;SDS011;52726;48.852;9.152;2022-12-07T09:34:51;5.00;;;2.50;;
65971;SDS011;52726;48.852;9.152;2022-12-07T09:37:17;2.70;;;2.13;;
65971;SDS011;52726;48.852;9.152;2022-12-07T09:39:42;3.70;;;1.58;;
65971;SDS011;52726;48.852;9.152;2022-12-07T09:42:07;2.47;;;1.80;;
65971;SDS011;52726;48.852;9.152;2022-12-07T09:44:35;3.15;;;2.53;;
65971;SDS011;52726;48.852;9.152;2022-12-07T09:47:01;5.22;;;2.15;;
65971;SDS011;52726;48.852;9.152;2022-12-07T09:49:28;3.35;;;2.22;;
65971;SDS011;52726;48.852;9.152;2022-12-07T09:54:30;8.77;;;2.13;;
65971;SDS011;52726;48.852;9.152;2022-12-07T09:56:58;3.13;;;2.10;;
65971;SDS011;52726;48.852;9.152;2022-12-07T09:59:24;4.82;;;2.67;;
65971;SDS011;52726;48.852;9.152;2022-12-07T10:01:50;3.25;;;2.13;;
65971;SDS011;52726;48.852;9.152;2022-12-07T10:04:16;6.80;;;2.30;;
65971;SDS011;52726;48.852;9.152;2022-12-07T10:06:45;5.18;;;2.47;;
65971;SDS011;52726;48.852;9.152;2022-12-07T10:09:13;4.60;;;2.83;;
65971;SDS011;52726;48.852;9.152;2022-12-07T10:14:36;4.80;;;2.55;;
65971;SDS011;52726;48.852;9.152;2022-12-07T10:17:28;9.50;;;2.65;;
65971;SDS011;52726;48.852;9.152;2022-12-07T10:25:26;4.22;;;2.08;;
65971;SDS011;52726;48.852;9.152;2022-12-07T10:28:00;3.22;;;2.10;;
65971;SDS011;52726;48.852;9.152;2022-12-07T10:30:28;2.10;;;1.90;;
65971;SDS011;52726;48.852;9.152;2022-12-07T10:32:54;2.15;;;1.88;;
65971;SDS011;52726;48.852;9.152;2022-12-07T10:35:24;2.85;;;2.10;;
65971;SDS011;52726;48.852;9.152;2022-12-07T10:37:55;2.60;;;2.13;;
65971;SDS011;52726;48.852;9.152;2022-12-07T10:40:33;2.80;;;1.48;;
65971;SDS011;52726;48.852;9.152;2022-12-07T10:48:36;2.88;;;1.85;;
65971;SDS011;52726;48.852;9.152;2022-12-07T10:51:41;1.70;;;1.60;;
65971;SDS011;52726;48.852;9.152;2022-12-07T10:54:21;1.50;;;1.40;;
65971;SDS011;52726;48.852;9.152;2022-12-07T10:57:16;1.67;;;1.50;;
65971;SDS011;52726;48.852;9.152;2022-12-07T11:05:43;1.60;;;1.02;;
65971;SDS011;52726;48.852;9.152;2022-12-07T11:11:09;2.15;;;1.63;;
65971;SDS011;52726;48.852;9.152;2022-12-07T11:21:48;2.53;;;1.70;;
65971;SDS011;52726;48.852;9.152;2022-12-07T11:24:50;2.45;;;1.63;;
65971;SDS011;52726;48.852;9.152;2022-12-07T11:30:42;4.85;;;1.65;;
65971;SDS011;52726;48.852;9.152;2022-12-07T11:33:25;3.95;;;2.47;;
65971;SDS011;52726;48.852;9.152;2022-12-07T11:38:47;5.30;;;2.83;;
65971;SDS011;52726;48.852;9.152;2022-12-07T11:41:20;4.93;;;2.78;;
65971;SDS011;52726;48.852;9.152;2022-12-07T11:44:07;4.93;;;3.50;;
65971;SDS011;52726;48.852;9.152;2022-12-07T11:46:49;3.75;;;2.35;;
65971;SDS011;52726;48.852;9.152;2022-12-07T11:49:40;8.07;;;3.45;;
65971;SDS011;52726;48.852;9.152;2022-12-07T11:52:39;3.67;;;2.85;;
65971;SDS011;52726;48.852;9.152;2022-12-07T11:55:23;4.45;;;2.65;;
65971;SDS011;52726;48.852;9.152;2022-12-07T11:57:57;4.00;;;2.83;;
65971;SDS011;52726;48.852;9.152;2022-12-07T12:00:29;4.43;;;2.47;;
65971;SDS011;52726;48.852;9.152;2022-12-07T12:03:04;3.45;;;2.65;;
65971;SDS011;52726;48.852;9.152;2022-12-07T12:05:36;6.20;;;3.72;;
65971;SDS011;52726;48.852;9.152;2022-12-07T12:08:17;2.33;;;1.73;;
65971;SDS011;52726;48.852;9.152;2022-12-07T12:13:33;10.27;;;3.70;;
65971;SDS011;52726;48.852;9.152;2022-12-07T12:18:54;3.38;;;2.65;;
65971;SDS011;52726;48.852;9.152;2022-12-07T12:21:29;4.95;;;3.05;;
65971;SDS011;52726;48.852;9.152;2022-12-07T12:23:56;4.00;;;2.90;;
65971;SDS011;52726;48.852;9.152;2022-12-07T12:26:27;3.50;;;2.40;;
65971;SDS011;52726;48.852;9.152;2022-12-07T12:28:57;5.35;;;2.85;;
65971;SDS011;52726;48.852;9.152;2022-12-07T12:33:53;3.55;;;2.58;;
65971;SDS011;52726;48.852;9.152;2022-12-07T13:27:39;4.95;;;3.38;;
65971;SDS011;52726;48.852;9.152;2022-12-07T13:30:14;7.63;;;3.95;;
65971;SDS011;52726;48.852;9.152;2022-12-07T13:32:42;5.68;;;3.65;;
65971;SDS011;52726;48.852;9.152;2022-12-07T13:35:28;7.00;;;3.47;;
65971;SDS011;52726;48.852;9.152;2022-12-07T13:37:55;7.30;;;4.10;;
65971;SDS011;52726;48.852;9.152;2022-12-07T13:40:21;7.20;;;4.38;;
65971;SDS011;52726;48.852;9.152;2022-12-07T13:42:48;6.85;;;4.22;;
65971;SDS011;52726;48.852;9.152;2022-12-07T13:45:32;7.65;;;4.35;;
65971;SDS011;52726;48.852;9.152;2022-12-07T13:48:35;8.57;;;4.55;;
65971;SDS011;52726;48.852;9.152;2022-12-07T13:51:12;10.57;;;4.28;;
65971;SDS011;52726;48.852;9.152;2022-12-07T13:53:46;9.98;;;3.58;;
65971;SDS011;52726;48.852;9.152;2022-12-07T13:56:16;5.45;;;3.95;;
65971;SDS011;52726;48.852;9.152;2022-12-07T13:58:41;9.50;;;4.35;;
65971;SDS011;52726;48.852;9.152;2022-12-07T14:01:07;8.10;;;4.38;;
65971;SDS011;52726;48.852;9.152;2022-12-07T14:03:33;7.68;;;4.45;;
65971;SDS011;52726;48.852;9.152;2022-12-07T14:08:31;10.20;;;3.92;;
65971;SDS011;52726;48.852;9.152;2022-12-07T14:10:57;4.68;;;3.60;;
65971;SDS011;52726;48.852;9.152;2022-12-07T14:13:37;6.25;;;4.15;;
65971;SDS011;52726;48.852;9.152;2022-12-07T14:18:54;5.82;;;4.18;;
65971;SDS011;52726;48.852;9.152;2022-12-07T14:21:22;6.03;;;3.65;;
65971;SDS011;52726;48.852;9.152;2022-12-07T14:24:04;4.03;;;2.88;;
65971;SDS011;52726;48.852;9.152;2022-12-07T14:26:32;5.35;;;2.78;;
65971;SDS011;52726;48.852;9.152;2022-12-07T14:31:52;8.55;;;3.22;;
65971;SDS011;52726;48.852;9.152;2022-12-07T14:34:21;7.65;;;4.38;;
65971;SDS011;52726;48.852;9.152;2022-12-07T14:36:47;6.20;;;3.65;;
65971;SDS011;52726;48.852;9.152;2022-12-07T14:39:13;5.18;;;3.63;;
65971;SDS011;52726;48.852;9.152;2022-12-07T14:41:38;9.25;;;4.47;;
65971;SDS011;52726;48.852;9.152;2022-12-07T14:44:16;7.72;;;4.22;;
65971;SDS011;52726;48.852;9.152;2022-12-07T14:46:42;9.88;;;5.15;;
65971;SDS011;52726;48.852;9.152;2022-12-07T14:49:07;13.15;;;4.70;;
65971;SDS011;52726;48.852;9.152;2022-12-07T14:51:33;6.65;;;3.97;;
65971;SDS011;52726;48.852;9.152;2022-12-07T14:54:02;7.72;;;4.30;;
65971;SDS011;52726;48.852;9.152;2022-12-07T14:56:30;7.47;;;4.13;;
65971;SDS011;52726;48.852;9.152;2022-12-07T14:58:55;9.15;;;4.35;;
65971;SDS011;52726;48.852;9.152;2022-12-07T15:01:21;8.77;;;4.43;;
65971;SDS011;52726;48.852;9.152;2022-12-07T15:03:46;5.78;;;3.70;;
65971;SDS011;52726;48.852;9.152;2022-12-07T15:06:16;14.98;;;4.38;;
65971;SDS011;52726;48.852;9.152;2022-12-07T15:08:42;7.00;;;3.85;;
65971;SDS011;52726;48.852;9.152;2022-12-07T15:11:18;16.45;;;10.60;;
65971;SDS011;52726;48.852;9.152;2022-12-07T15:13:45;12.20;;;6.53;;
65971;SDS011;52726;48.852;9.152;2022-12-07T15:16:29;7.47;;;4.30;;
65971;SDS011;52726;48.852;9.152;2022-12-07T15:18:55;6.57;;;3.58;;
65971;SDS011;52726;48.852;9.152;2022-12-07T15:21:21;8.82;;;4.15;;
65971;SDS011;52726;48.852;9.152;2022-12-07T15:23:46;6.95;;;4.10;;
65971;SDS011;52726;48.852;9.152;2022-12-07T15:26:13;7.95;;;4.60;;
65971;SDS011;52726;48.852;9.152;2022-12-07T15:28:39;18.60;;;4.78;;
65971;SDS011;52726;48.852;9.152;2022-12-07T15:31:10;8.73;;;4.68;;
65971;SDS011;52726;48.852;9.152;2022-12-07T15:33:40;6.80;;;3.85;;
65971;SDS011;52726;48.852;9.152;2022-12-07T15:36:06;7.50;;;4.22;;
65971;SDS011;52726;48.852;9.152;2022-12-07T15:38:31;8.82;;;4.85;;
65971;SDS011;52726;48.852;9.152;2022-12-07T15:40:57;10.20;;;5.10;;
65971;SDS011;52726;48.852;9.152;2022-12-07T15:43:22;8.52;;;5.80;;
65971;SDS011;52726;48.852;9.152;2022-12-07T15:46:06;9.32;;;5.43;;
65971;SDS011;52726;48.852;9.152;2022-12-07T15:48:32;8.75;;;4.32;;
65971;SDS011;52726;48.852;9.152;2022-12-07T15:51:04;7.50;;;4.35;;
65971;SDS011;52726;48.852;9.152;2022-12-07T15:53:31;7.22;;;3.97;;
65971;SDS011;52726;48.852;9.152;2022-12-07T15:55:56;6.97;;;4.10;;
65971;SDS011;52726;48.852;9.152;2022-12-07T15:58:22;8.43;;;4.57;;
65971;SDS011;52726;48.852;9.152;2022-12-07T16:00:47;7.82;;;4.38;;
65971;SDS011;52726;48.852;9.152;2022-12-07T16:03:13;7.38;;;4.60;;
65971;SDS011;52726;48.852;9.152;2022-12-07T16:05:38;8.60;;;4.28;;
65971;SDS011;52726;48.852;9.152;2022-12-07T16:08:04;11.02;;;4.30;;
65971;SDS011;52726;48.852;9.152;2022-12-07T16:10:29;10.40;;;4.68;;
65971;SDS011;52726;48.852;9.152;2022-12-07T16:12:55;7.53;;;4.55;;
65971;SDS011;52726;48.852;9.152;2022-12-07T16:15:20;6.50;;;3.88;;
65971;SDS011;52726;48.852;9.152;2022-12-07T16:17:45;7.47;;;4.75;;
65971;SDS011;52726;48.852;9.152;2022-12-07T16:20:11;6.22;;;4.15;;
65971;SDS011;52726;48.852;9.152;2022-12-07T16:22:36;10.95;;;5.70;;
65971;SDS011;52726;48.852;9.152;2022-12-07T16:25:02;10.88;;;6.15;;
65971;SDS011;52726;48.852;9.152;2022-12-07T16:27:28;7.47;;;4.75;;
65971;SDS011;52726;48.852;9.152;2022-12-07T16:29:53;9.30;;;4.82;;
65971;SDS011;52726;48.852;9.152;2022-12-07T16:32:19;7.85;;;4.65;;
65971;SDS011;52726;48.852;9.152;2022-12-07T16:34:44;8.85;;;5.57;;
65971;SDS011;52726;48.852;9.152;2022-12-07T16:37:09;8.65;;;5.18;;
65971;SDS011;52726;48.852;9.152;2022-12-07T16:39:35;10.95;;;5.00;;
65971;SDS011;52726;48.852;9.152;2022-12-07T16:42:00;11.10;;;5.22;;
65971;SDS011;52726;48.852;9.152;2022-12-07T16:44:26;7.18;;;4.53;;
65971;SDS011;52726;48.852;9.152;2022-12-07T16:46:52;9.68;;;4.88;;
65971;SDS011;52726;48.852;9.152;2022-12-07T16:49:17;9.43;;;5.35;;
65971;SDS011;52726;48.852;9.152;2022-12-07T16:51:43;9.35;;;4.60;;
65971;SDS011;52726;48.852;9.152;2022-12-07T16:54:10;8.50;;;4.63;;
65971;SDS011;52726;48.852;9.152;2022-12-07T16:56:36;11.77;;;4.82;;
65971;SDS011;52726;48.852;9.152;2022-12-07T16:59:02;7.65;;;4.43;;
65971;SDS011;52726;48.852;9.152;2022-12-07T17:01:27;9.57;;;5.13;;
65971;SDS011;52726;48.852;9.152;2022-12-07T17:03:53;10.63;;;5.75;;
65971;SDS011;52726;48.852;9.152;2022-12-07T17:06:19;14.55;;;4.45;;
65971;SDS011;52726;48.852;9.152;2022-12-07T17:08:47;8.73;;;4.40;;
65971;SDS011;52726;48.852;9.152;2022-12-07T17:11:17;11.20;;;5.30;;
65971;SDS011;52726;48.852;9.152;2022-12-07T17:13:47;8.35;;;5.00;;
65971;SDS011;52726;48.852;9.152;2022-12-07T17:16:31;11.02;;;5.85;;
65971;SDS011;52726;48.852;9.152;2022-12-07T17:18:57;7.05;;;4.18;;